Spring Creek, Texas
Current Conditions -  °F | °C
As of 8:35 AM on Saturday 25 Oct 2014 (Local Time) from KT82 Reporting Station
Clear Clear  
Wind Chill: 59°   Ceiling: Unl
Heat Index: 59°   Visibility: 10mi
Dew Point: 56°   Wind: 0mph
Humidity: 91%   Direction: NA
Pressure: 30.19"   Gusts: NA
Location:  30.3069°N, 98.8978°W
Report Text: KT82 251335Z AUTO 00000KT 10SM CLR 15/14 A3019 RMK AO2 T01510136
Loading
Personal Weather Stations






























Interactive Weather Map
Tropical Storm Tracking
New forecast layout! Learn more

10-Day Weather Forecast

Advertisements
Track Severe Weather on mobile